createdAt,value
2022-10-10T00:01:11.991Z,8.73
2022-10-10T00:04:00.656Z,8.65
2022-10-10T00:06:48.593Z,8.50
2022-10-10T00:09:36.551Z,8.47
2022-10-10T00:12:24.692Z,8.54
2022-10-10T00:15:16.618Z,8.51
2022-10-10T00:18:05.035Z,8.32
2022-10-10T00:20:53.805Z,8.36
2022-10-10T00:23:42.092Z,8.30
2022-10-10T00:26:30.257Z,8.31
2022-10-10T00:29:18.118Z,8.42
2022-10-10T00:32:06.246Z,8.10
2022-10-10T00:35:09.172Z,8.16
2022-10-10T00:38:03.594Z,8.27
2022-10-10T00:40:55.003Z,8.05
2022-10-10T00:43:43.013Z,7.99
2022-10-10T00:46:31.221Z,8.04
2022-10-10T00:49:25.383Z,8.24
2022-10-10T00:52:13.636Z,8.01
2022-10-10T00:55:01.492Z,7.96
2022-10-10T00:57:50.701Z,7.78
2022-10-10T01:00:38.890Z,7.99
2022-10-10T01:03:27.095Z,8.10
2022-10-10T01:06:17.861Z,8.20
2022-10-10T01:09:05.861Z,7.71
2022-10-10T01:12:24.503Z,7.57
2022-10-10T01:15:40.096Z,7.37
2022-10-10T01:18:52.183Z,7.53
2022-10-10T01:22:23.282Z,7.62
2022-10-10T01:25:29.793Z,7.54
2022-10-10T01:28:32.683Z,7.18
2022-10-10T01:31:24.674Z,7.20
2022-10-10T01:35:02.565Z,7.29
2022-10-10T01:38:09.016Z,7.27
2022-10-10T01:41:32.555Z,7.62
2022-10-10T01:44:22.664Z,7.43
2022-10-10T01:47:14.920Z,7.25
2022-10-10T01:50:10.298Z,7.29
2022-10-10T01:53:20.488Z,7.47
2022-10-10T01:56:34.406Z,7.34
2022-10-10T01:59:51.303Z,7.09
2022-10-10T02:03:02.546Z,6.99
2022-10-10T02:06:21.426Z,7.20
2022-10-10T02:09:22.452Z,7.17
2022-10-10T02:12:27.188Z,7.08
2022-10-10T02:15:33.408Z,7.06
2022-10-10T02:18:36.648Z,7.24
2022-10-10T02:21:47.236Z,7.44
2022-10-10T02:28:49.804Z,7.48
2022-10-10T02:32:03.791Z,7.65
2022-10-10T02:34:57.103Z,7.47
2022-10-10T02:37:47.328Z,7.31
2022-10-10T02:40:36.981Z,7.32
2022-10-10T02:43:29.412Z,7.34
2022-10-10T02:46:18.121Z,7.22
2022-10-10T02:49:09.177Z,7.09
2022-10-10T02:51:57.777Z,6.93
2022-10-10T02:54:45.804Z,7.03
2022-10-10T02:57:33.805Z,7.19
2022-10-10T03:00:22.016Z,7.09
2022-10-10T03:03:10.483Z,7.25
2022-10-10T03:05:58.584Z,7.34
2022-10-10T03:08:46.678Z,7.03
2022-10-10T03:11:34.755Z,7.11
2022-10-10T03:14:23.068Z,7.10
2022-10-10T03:17:14.095Z,7.11
2022-10-10T03:20:04.176Z,7.16
2022-10-10T03:22:52.423Z,7.08
2022-10-10T03:25:45.458Z,6.99
2022-10-10T03:28:33.817Z,7.19
2022-10-10T03:31:22.033Z,7.31
2022-10-10T03:34:12.547Z,7.33
2022-10-10T03:37:00.503Z,7.24
2022-10-10T03:39:48.998Z,7.30
2022-10-10T03:42:37.164Z,7.10
2022-10-10T03:45:25.734Z,7.04
2022-10-10T03:48:14.917Z,7.25
2022-10-10T03:51:02.980Z,7.31
2022-10-10T03:53:50.979Z,7.27
2022-10-10T03:56:39.371Z,7.22
2022-10-10T03:59:27.360Z,7.11
2022-10-10T04:02:15.400Z,7.35
2022-10-10T04:05:04.704Z,7.03
2022-10-10T04:08:00.312Z,6.73
2022-10-10T04:10:50.686Z,6.76
2022-10-10T04:13:38.687Z,6.82
2022-10-10T04:16:26.690Z,6.87
2022-10-10T04:19:15.141Z,6.92
2022-10-10T04:22:04.644Z,6.92
2022-10-10T04:24:57.211Z,7.05
2022-10-10T04:27:45.478Z,7.20
2022-10-10T04:30:35.548Z,7.23
2022-10-10T04:33:24.093Z,7.16
2022-10-10T04:36:12.200Z,7.34
2022-10-10T04:39:02.796Z,7.35
2022-10-10T04:41:50.948Z,7.64
2022-10-10T04:44:38.963Z,7.49
2022-10-10T04:47:26.898Z,7.41
2022-10-10T04:50:15.048Z,7.24
2022-10-10T04:53:03.365Z,7.22
2022-10-10T04:55:54.402Z,7.17
2022-10-10T04:58:42.695Z,6.89
2022-10-10T05:01:34.749Z,6.63
2022-10-10T05:04:22.853Z,6.68
2022-10-10T05:07:10.953Z,6.87
2022-10-10T05:09:59.336Z,7.14
2022-10-10T05:12:51.156Z,7.22
2022-10-10T05:15:43.182Z,7.43
2022-10-10T05:18:31.833Z,7.33
2022-10-10T05:21:54.510Z,7.29
2022-10-10T05:24:46.922Z,7.53
2022-10-10T05:27:35.008Z,7.73
2022-10-10T05:30:23.314Z,7.61
2022-10-10T05:33:11.386Z,7.44
2022-10-10T05:36:05.279Z,7.52
2022-10-10T05:38:53.323Z,7.64
2022-10-10T05:41:41.094Z,7.70
2022-10-10T05:44:28.952Z,7.56
2022-10-10T05:47:26.750Z,7.37
2022-10-10T05:50:36.355Z,7.35
2022-10-10T05:53:26.462Z,7.58
2022-10-10T05:56:17.012Z,7.55
2022-10-10T05:59:05.055Z,7.35
2022-10-10T06:01:52.865Z,7.64
2022-10-10T06:04:40.743Z,7.38
2022-10-10T06:07:45.520Z,7.61
2022-10-10T06:10:44.313Z,7.83
2022-10-10T06:13:32.744Z,7.96
2022-10-10T06:16:22.525Z,8.10
2022-10-10T06:19:14.914Z,7.57
2022-10-10T06:22:03.058Z,7.75
2022-10-10T06:24:53.017Z,7.93
2022-10-10T06:27:41.088Z,7.83
2022-10-10T06:30:29.264Z,8.10
2022-10-10T06:33:19.442Z,8.81
2022-10-10T06:36:08.809Z,8.98
2022-10-10T06:38:59.705Z,9.68
2022-10-10T06:41:49.667Z,10.25
2022-10-10T06:44:37.644Z,11.22
2022-10-10T06:47:25.625Z,12.20
2022-10-10T06:50:13.473Z,11.73
2022-10-10T06:53:04.116Z,12.07
2022-10-10T06:55:55.416Z,12.54
2022-10-10T06:58:43.794Z,13.83
2022-10-10T07:01:31.741Z,15.28
2022-10-10T07:04:19.691Z,16.63
2022-10-10T07:07:07.798Z,17.85
2022-10-10T07:09:55.642Z,17.95
2022-10-10T07:12:45.177Z,18.38
2022-10-10T07:15:33.468Z,17.71
2022-10-10T07:18:21.998Z,17.51
2022-10-10T07:21:10.203Z,18.22
2022-10-10T07:23:58.166Z,17.84
2022-10-10T07:26:46.162Z,18.12
2022-10-10T07:29:34.299Z,18.52
2022-10-10T07:32:22.499Z,16.86
2022-10-10T07:35:14.259Z,17.05
2022-10-10T07:38:03.013Z,18.20
2022-10-10T07:40:50.964Z,17.33
2022-10-10T07:43:39.573Z,17.03
2022-10-10T07:46:27.605Z,15.84
2022-10-10T07:49:16.617Z,14.36
2022-10-10T07:52:09.395Z,14.62
2022-10-10T07:54:57.485Z,14.49
2022-10-10T07:57:47.814Z,13.12
2022-10-10T08:00:40.925Z,13.11
2022-10-10T08:03:28.910Z,13.52
2022-10-10T08:06:18.291Z,13.26
2022-10-10T08:09:09.181Z,13.26
2022-10-10T08:11:57.073Z,13.75
2022-10-10T08:14:45.189Z,14.48
2022-10-10T08:17:33.867Z,15.50
2022-10-10T08:20:24.465Z,16.20
2022-10-10T08:23:13.282Z,14.54
2022-10-10T08:26:03.667Z,14.95
2022-10-10T08:28:51.685Z,14.87
2022-10-10T08:31:40.805Z,14.92
2022-10-10T08:34:29.132Z,14.33
2022-10-10T08:37:19.979Z,14.20
2022-10-10T08:40:10.286Z,13.98
2022-10-10T08:43:05.343Z,13.94
2022-10-10T08:45:57.636Z,14.59
2022-10-10T08:48:48.093Z,14.58
2022-10-10T08:51:36.075Z,14.31
2022-10-10T08:54:27.478Z,15.03
2022-10-10T08:57:44.743Z,14.71
2022-10-10T09:00:40.917Z,14.04
2022-10-10T09:03:43.867Z,14.53
2022-10-10T09:07:08.441Z,14.05
2022-10-10T09:10:24.378Z,13.75
2022-10-10T09:13:25.646Z,14.12
2022-10-10T09:16:37.455Z,14.09
2022-10-10T09:20:00.860Z,13.47
2022-10-10T09:23:06.293Z,13.60
2022-10-10T09:26:27.238Z,13.69
2022-10-10T09:29:23.933Z,13.59
2022-10-10T09:32:24.705Z,13.56
2022-10-10T09:35:28.803Z,13.47
2022-10-10T09:38:39.154Z,13.77
2022-10-10T09:41:52.319Z,14.08
2022-10-10T09:44:42.952Z,14.21
2022-10-10T09:47:30.901Z,14.13
2022-10-10T09:50:19.090Z,14.19
2022-10-10T09:53:07.086Z,14.25
2022-10-10T09:55:55.870Z,14.23
2022-10-10T09:58:50.131Z,14.57
2022-10-10T10:01:38.098Z,14.41
2022-10-10T10:04:33.349Z,14.39
2022-10-10T10:07:50.312Z,14.64
2022-10-10T10:10:39.013Z,14.26
2022-10-10T10:13:34.358Z,14.69
2022-10-10T10:16:38.887Z,14.75
2022-10-10T10:19:38.876Z,15.12
2022-10-10T10:22:38.898Z,15.30
2022-10-10T10:25:37.849Z,15.56
2022-10-10T10:28:26.359Z,15.55
2022-10-10T10:31:54.069Z,15.28
2022-10-10T10:34:50.834Z,15.09
2022-10-10T10:37:54.087Z,15.55
2022-10-10T10:40:46.440Z,15.22
2022-10-10T10:44:31.970Z,15.12
2022-10-10T10:48:01.236Z,15.23
2022-10-10T10:51:00.610Z,15.34
2022-10-10T10:54:45.639Z,15.68
2022-10-10T10:59:05.484Z,16.24
2022-10-10T11:01:55.876Z,15.40
2022-10-10T11:05:35.249Z,15.97
2022-10-10T11:08:47.325Z,16.53
2022-10-10T11:12:04.543Z,16.60
2022-10-10T11:15:03.891Z,16.97
2022-10-10T11:18:09.402Z,16.75
2022-10-10T11:21:16.902Z,16.65
2022-10-10T11:24:13.519Z,16.42
2022-10-10T11:27:10.207Z,16.69
2022-10-10T11:30:20.871Z,16.30
2022-10-10T11:33:18.268Z,16.85
2022-10-10T11:36:16.836Z,17.40
2022-10-10T11:39:20.704Z,17.34
2022-10-10T11:42:24.930Z,17.27
2022-10-10T11:45:28.740Z,16.79
2022-10-10T11:48:32.471Z,17.57
2022-10-10T11:51:44.240Z,17.17
2022-10-10T11:54:50.458Z,17.18
2022-10-10T11:57:47.511Z,17.41
2022-10-10T12:00:48.639Z,17.15
2022-10-10T12:03:36.517Z,16.83
2022-10-10T12:06:47.325Z,16.80
2022-10-10T12:09:43.885Z,16.93
2022-10-10T12:12:39.949Z,16.81
2022-10-10T12:15:38.539Z,17.18
2022-10-10T12:18:40.073Z,17.15
2022-10-10T12:21:30.902Z,17.31
2022-10-10T12:24:19.574Z,17.32
2022-10-10T12:27:07.495Z,17.69
2022-10-10T12:29:55.327Z,17.32
2022-10-10T12:32:45.228Z,17.35
2022-10-10T12:35:41.608Z,17.20
2022-10-10T12:38:29.488Z,17.57
2022-10-10T12:41:17.643Z,17.65
2022-10-10T12:44:34.156Z,17.74
2022-10-10T12:47:52.609Z,17.99
2022-10-10T12:50:43.157Z,18.19
2022-10-10T12:53:34.392Z,17.97
2022-10-10T12:56:35.900Z,17.86
2022-10-10T12:59:25.324Z,17.97
2022-10-10T13:02:25.791Z,17.92
2022-10-10T13:05:19.285Z,18.26
2022-10-10T13:08:18.489Z,18.09
2022-10-10T13:11:16.035Z,18.28
2022-10-10T13:14:08.796Z,17.87
2022-10-10T13:16:59.619Z,18.38
2022-10-10T13:19:47.750Z,18.50
2022-10-10T13:22:37.223Z,18.48
2022-10-10T13:25:25.567Z,18.90
2022-10-10T13:28:19.730Z,18.97
2022-10-10T13:31:13.965Z,19.35
2022-10-10T13:34:06.323Z,19.55
2022-10-10T13:36:57.278Z,19.07
2022-10-10T13:39:45.828Z,18.84
2022-10-10T13:42:39.404Z,18.60
2022-10-10T13:45:37.384Z,18.78
2022-10-10T13:48:39.528Z,19.16
2022-10-10T13:51:47.951Z,19.20
2022-10-10T13:54:41.023Z,19.60
2022-10-10T13:57:29.001Z,20.02
2022-10-10T14:00:23.109Z,20.76
2022-10-10T14:03:17.192Z,21.21
2022-10-10T14:06:05.204Z,21.16
2022-10-10T14:08:57.206Z,19.87
2022-10-10T14:11:45.252Z,19.57
2022-10-10T14:14:47.934Z,18.99
2022-10-10T14:17:35.895Z,19.20
2022-10-10T14:20:24.241Z,19.82
2022-10-10T14:23:13.071Z,19.74
2022-10-10T14:26:03.786Z,20.31
2022-10-10T14:28:51.757Z,20.02
2022-10-10T14:31:40.593Z,19.50
2022-10-10T14:34:28.685Z,19.00
2022-10-10T14:37:26.900Z,19.15
2022-10-10T14:40:21.660Z,19.52
2022-10-10T14:43:09.728Z,20.37
2022-10-10T14:45:57.930Z,20.61
2022-10-10T14:48:46.926Z,20.54
2022-10-10T14:51:38.389Z,20.75
2022-10-10T14:54:26.460Z,21.06
2022-10-10T14:57:16.087Z,21.08
2022-10-10T15:00:14.068Z,21.16
2022-10-10T15:03:01.963Z,20.09
2022-10-10T15:05:50.945Z,19.82
2022-10-10T15:08:38.946Z,19.50
2022-10-10T15:11:27.043Z,19.87
2022-10-10T15:14:14.913Z,19.55
2022-10-10T15:17:02.939Z,19.06
2022-10-10T15:19:50.811Z,19.16
2022-10-10T15:22:39.442Z,19.43
2022-10-10T15:25:33.388Z,19.80
2022-10-10T15:28:22.107Z,19.45
2022-10-10T15:31:09.997Z,19.30
2022-10-10T15:33:58.015Z,19.38
2022-10-10T15:36:47.001Z,19.77
2022-10-10T15:39:38.330Z,19.97
2022-10-10T15:42:28.997Z,20.15
2022-10-10T15:45:36.884Z,20.54
2022-10-10T15:48:26.352Z,20.56
2022-10-10T15:51:15.042Z,20.62
2022-10-10T15:54:03.293Z,20.74
2022-10-10T15:56:51.432Z,20.29
2022-10-10T15:59:41.987Z,20.46
2022-10-10T16:02:32.210Z,20.47
2022-10-10T16:05:20.117Z,20.38
2022-10-10T16:08:12.115Z,20.03
2022-10-10T16:11:12.329Z,19.35
2022-10-10T16:14:00.308Z,19.59
2022-10-10T16:16:48.482Z,19.33
2022-10-10T16:19:36.606Z,19.46
2022-10-10T16:22:28.993Z,19.64
2022-10-10T16:25:22.191Z,19.78
2022-10-10T16:28:10.946Z,19.78
2022-10-10T16:31:03.489Z,19.50
2022-10-10T16:33:52.010Z,19.10
2022-10-10T16:36:40.020Z,18.89
2022-10-10T16:39:27.980Z,18.69
2022-10-10T16:42:16.019Z,18.60
2022-10-10T16:45:04.711Z,18.50
2022-10-10T16:47:58.246Z,18.27
2022-10-10T16:50:46.115Z,18.10
2022-10-10T16:53:34.967Z,18.05
2022-10-10T16:56:22.958Z,17.89
2022-10-10T16:59:10.909Z,18.04
2022-10-10T17:01:58.820Z,18.29
2022-10-10T17:04:46.850Z,18.43
2022-10-10T17:07:37.858Z,18.21
2022-10-10T17:10:27.251Z,17.85
2022-10-10T17:13:15.171Z,17.57
2022-10-10T17:16:47.933Z,17.51
2022-10-10T17:19:17.718Z,17.28
2022-10-10T17:22:05.505Z,17.30
2022-10-10T17:24:53.321Z,17.30
2022-10-10T17:27:43.747Z,17.01
2022-10-10T17:30:31.631Z,16.86
2022-10-10T17:33:20.209Z,16.69
2022-10-10T17:36:11.438Z,16.45
2022-10-10T17:39:02.478Z,16.27
2022-10-10T17:41:50.322Z,15.90
2022-10-10T17:44:44.782Z,15.61
2022-10-10T17:47:36.925Z,15.40
2022-10-10T17:50:25.070Z,15.56
2022-10-10T17:53:13.053Z,15.71
2022-10-10T17:56:01.263Z,15.72
2022-10-10T17:58:50.408Z,15.78
2022-10-10T18:01:39.563Z,15.75
2022-10-10T18:04:27.992Z,15.79
2022-10-10T18:07:18.549Z,15.76
2022-10-10T18:10:08.034Z,15.79
2022-10-10T18:12:57.141Z,15.71
2022-10-10T18:15:58.572Z,15.64
2022-10-10T18:18:53.316Z,15.51
2022-10-10T18:21:41.158Z,15.54
2022-10-10T18:24:29.379Z,15.58
2022-10-10T18:27:17.291Z,15.64
2022-10-10T18:30:06.008Z,15.55
2022-10-10T18:32:53.856Z,15.53
2022-10-10T18:35:45.035Z,15.46
2022-10-10T18:38:34.218Z,15.37
2022-10-10T18:41:30.766Z,15.32
2022-10-10T18:54:50.377Z,15.02
2022-10-10T18:57:38.890Z,15.10
2022-10-10T19:00:26.916Z,15.06
2022-10-10T19:03:16.210Z,14.90
2022-10-10T19:06:13.635Z,14.92
2022-10-10T19:09:03.473Z,14.84
2022-10-10T19:11:53.287Z,15.07
2022-10-10T19:14:41.516Z,15.32
2022-10-10T19:17:32.017Z,15.32
2022-10-10T19:20:19.945Z,15.33
2022-10-10T19:23:07.938Z,15.37
2022-10-10T19:25:56.147Z,15.28
2022-10-10T19:28:53.906Z,15.22
2022-10-10T19:31:41.893Z,15.08
2022-10-10T19:34:29.777Z,15.10
2022-10-10T19:40:45.262Z,15.09
2022-10-10T19:43:33.388Z,15.05
2022-10-10T19:46:23.265Z,15.14
2022-10-10T19:49:18.975Z,15.13
2022-10-10T19:52:13.916Z,15.14
2022-10-10T19:55:09.125Z,15.10
2022-10-10T19:58:14.397Z,15.16
2022-10-10T20:01:12.861Z,15.10
2022-10-10T20:04:03.880Z,15.15
2022-10-10T20:06:54.041Z,15.13
2022-10-10T20:09:42.250Z,15.24
2022-10-10T20:12:30.702Z,15.07
2022-10-10T20:15:18.692Z,14.98
2022-10-10T20:18:06.769Z,14.95
2022-10-10T20:20:54.661Z,14.94
2022-10-10T20:23:47.237Z,14.88
2022-10-10T20:26:37.494Z,14.96
2022-10-10T20:29:25.330Z,15.05
2022-10-10T20:32:15.949Z,15.31
2022-10-10T20:35:03.896Z,15.43
2022-10-10T20:37:51.784Z,15.49
2022-10-10T20:40:41.727Z,15.61
2022-10-10T20:43:33.771Z,15.69
2022-10-10T20:46:21.725Z,15.68
2022-10-10T20:49:20.775Z,15.79
2022-10-10T20:52:13.879Z,15.80
2022-10-10T20:55:04.284Z,15.64
2022-10-10T20:57:53.434Z,15.62
2022-10-10T21:00:46.474Z,15.56
2022-10-10T21:03:34.786Z,15.51
2022-10-10T21:06:27.878Z,15.36
2022-10-10T21:09:17.833Z,15.51
2022-10-10T21:12:06.023Z,15.70
2022-10-10T21:14:54.115Z,15.59
2022-10-10T21:17:42.287Z,15.46
2022-10-10T21:20:30.195Z,15.37
2022-10-10T21:23:18.210Z,15.58
2022-10-10T21:26:18.272Z,15.54
2022-10-10T21:29:06.644Z,15.84
2022-10-10T21:31:57.742Z,15.81
2022-10-10T21:34:51.922Z,15.79
2022-10-10T21:37:44.396Z,15.52
2022-10-10T21:40:32.455Z,15.34
2022-10-10T21:43:21.888Z,15.29
2022-10-10T21:46:16.428Z,15.46
2022-10-10T21:49:11.506Z,15.53
2022-10-10T21:52:01.640Z,15.43
2022-10-10T21:54:51.278Z,15.71
2022-10-10T21:57:41.485Z,15.40
2022-10-10T22:00:29.412Z,15.42
2022-10-10T22:03:17.469Z,15.46
2022-10-10T22:06:11.730Z,15.40
2022-10-10T22:09:00.431Z,15.33
2022-10-10T22:11:48.248Z,15.34
2022-10-10T22:14:36.129Z,15.24
2022-10-10T22:17:24.458Z,15.29
2022-10-10T22:20:13.533Z,15.33
2022-10-10T22:23:04.295Z,15.27
2022-10-10T22:25:53.971Z,15.23
2022-10-10T22:28:42.529Z,15.31
2022-10-10T22:31:30.809Z,15.19
2022-10-10T22:34:19.025Z,15.22
2022-10-10T22:37:08.112Z,15.33
2022-10-10T22:40:05.659Z,15.20
2022-10-10T22:43:33.299Z,15.14
2022-10-10T22:47:13.236Z,15.09
2022-10-10T22:58:35.279Z,14.96
2022-10-10T23:02:46.689Z,14.94
2022-10-10T23:11:06.215Z,14.96
2022-10-10T23:14:41.265Z,14.98
2022-10-10T23:18:39.840Z,15.05
2022-10-10T23:22:48.513Z,15.03
2022-10-10T23:30:23.560Z,15.02
2022-10-10T23:34:35.271Z,14.78
2022-10-10T23:54:05.378Z,14.24
2022-10-10T23:57:57.410Z,14.18
